Time;durP1;ratioP1;P1;durP2;ratioP2;P2;SDS_P1;SDS_P2;PMS_P1;PMS_P2;Temp;Humidity;BMP_temperature;BMP_pressure;BME280_temperature;BME280_humidity;BME280_pressure;Samples;Min_cycle;Max_cycle;Signal;HPM_P1;HPM_P2
2021/07/01 00:00:25;;;;;;;0.70;0.60;;;14.30;99.90;;;;;;4988244;28;20030;-81
2021/07/01 00:02:51;;;;;;;0.70;0.70;;;14.30;99.90;;;;;;5008963;28;20109;-81
2021/07/01 00:05:17;;;;;;;2.65;0.73;;;14.40;99.90;;;;;;4991193;28;20124;-81
2021/07/01 00:07:44;;;;;;;0.70;0.70;;;14.40;99.90;;;;;;4991622;28;20033;-81
2021/07/01 00:10:24;;;;;;;1.42;1.15;;;14.40;99.90;;;;;;5009684;28;20439;-81
2021/07/01 00:12:50;;;;;;;0.98;0.90;;;14.40;99.90;;;;;;4974916;28;20026;-81
2021/07/01 00:15:20;;;;;;;0.70;0.70;;;14.50;99.90;;;;;;4975409;28;20030;-83
2021/07/01 00:17:46;;;;;;;0.90;0.65;;;14.50;99.90;;;;;;4974626;28;20044;-80
2021/07/01 00:20:13;;;;;;;1.45;0.75;;;14.50;99.90;;;;;;4977515;28;20408;-80
2021/07/01 00:22:39;;;;;;;0.90;0.90;;;14.60;99.90;;;;;;4979553;28;20511;-81
2021/07/01 00:25:08;;;;;;;0.73;0.73;;;14.60;99.90;;;;;;5041305;23;20517;-80
2021/07/01 00:27:34;;;;;;;0.80;0.80;;;14.60;99.90;;;;;;5053061;28;20037;-80
2021/07/01 00:30:00;;;;;;;0.95;0.80;;;14.60;99.90;;;;;;5053613;28;20029;-81
2021/07/01 00:32:26;;;;;;;0.80;0.80;;;14.60;99.90;;;;;;5032650;28;20516;-81
2021/07/01 00:34:52;;;;;;;1.08;1.00;;;14.60;99.90;;;;;;5055896;28;20099;-80
2021/07/01 00:37:18;;;;;;;0.90;0.90;;;14.60;99.90;;;;;;5064778;28;20050;-80
2021/07/01 00:39:44;;;;;;;0.70;0.70;;;14.60;99.90;;;;;;5048024;28;20040;-80
2021/07/01 00:42:09;;;;;;;1.02;1.02;;;14.60;99.90;;;;;;5068171;28;20383;-80
2021/07/01 00:44:35;;;;;;;1.30;1.20;;;14.70;99.90;;;;;;5053936;28;20033;-81
2021/07/01 00:47:01;;;;;;;1.10;1.10;;;14.70;99.90;;;;;;5071706;28;20036;-81
2021/07/01 00:49:27;;;;;;;1.30;1.20;;;14.70;99.90;;;;;;5069375;28;20033;-80
2021/07/01 00:51:53;;;;;;;1.10;1.10;;;14.70;99.90;;;;;;5063916;28;20040;-81
2021/07/01 00:54:19;;;;;;;1.60;1.50;;;14.70;99.90;;;;;;5063932;28;20025;-81
2021/07/01 00:56:46;;;;;;;1.30;1.00;;;14.70;99.90;;;;;;5060860;28;20037;-80
2021/07/01 00:59:12;;;;;;;1.40;1.20;;;14.70;99.90;;;;;;5058195;28;20061;-80
2021/07/01 01:01:38;;;;;;;1.67;1.30;;;14.70;99.90;;;;;;5063540;28;20016;-79
2021/07/01 01:04:05;;;;;;;1.30;1.20;;;14.70;99.90;;;;;;5071334;28;20107;-81
2021/07/01 01:06:32;;;;;;;1.20;1.20;;;14.70;99.90;;;;;;5052226;28;20495;-81
2021/07/01 01:08:58;;;;;;;2.05;1.55;;;14.70;99.90;;;;;;5065227;28;20040;-81
2021/07/01 01:11:26;;;;;;;2.53;1.58;;;14.70;99.90;;;;;;5071205;28;20035;-81
2021/07/01 01:14:04;;;;;;;1.70;1.60;;;14.70;99.90;;;;;;5056608;28;20033;-81
2021/07/01 01:16:33;;;;;;;1.70;1.60;;;14.70;99.90;;;;;;5059756;28;20032;-80
2021/07/01 01:18:59;;;;;;;1.65;1.55;;;14.70;99.90;;;;;;5053120;28;20036;-81
2021/07/01 01:21:28;;;;;;;1.63;1.52;;;14.70;99.90;;;;;;5069787;28;20064;-81
2021/07/01 01:23:56;;;;;;;1.10;1.10;;;14.70;99.90;;;;;;5072616;28;20063;-80
2021/07/01 01:26:22;;;;;;;1.77;1.65;;;14.80;99.90;;;;;;5048094;28;20044;-80
2021/07/01 01:28:53;;;;;;;1.60;1.50;;;14.70;99.90;;;;;;5053301;28;20075;-80
2021/07/01 01:31:20;;;;;;;1.83;1.73;;;14.80;99.90;;;;;;5070811;28;20398;-79
2021/07/01 01:33:48;;;;;;;1.60;1.50;;;14.80;99.90;;;;;;5066845;28;20039;-80
2021/07/01 01:36:14;;;;;;;1.52;1.42;;;14.80;99.90;;;;;;5067328;28;20419;-81
2021/07/01 01:38:44;;;;;;;1.67;1.58;;;14.80;99.90;;;;;;5056947;28;20036;-80
2021/07/01 01:41:35;;;;;;;1.70;1.60;;;14.80;99.90;;;;;;5063067;28;20033;-80
2021/07/01 01:44:01;;;;;;;2.47;2.28;;;14.70;99.90;;;;;;5052398;28;20033;-81
2021/07/01 01:46:35;;;;;;;2.13;1.92;;;14.70;99.90;;;;;;5066967;28;20052;-80
2021/07/01 01:49:02;;;;;;;1.92;1.83;;;14.70;99.90;;;;;;5064982;28;20153;-81
2021/07/01 01:51:27;;;;;;;2.30;2.20;;;14.60;99.90;;;;;;5053381;28;20375;-80
2021/07/01 01:53:59;;;;;;;2.42;1.85;;;14.50;99.90;;;;;;5055760;28;20165;-82
2021/07/01 01:56:36;;;;;;;2.30;2.20;;;14.40;99.90;;;;;;5052825;28;20032;-81
2021/07/01 01:59:03;;;;;;;3.97;2.20;;;14.40;99.90;;;;;;5055544;28;20037;-81
2021/07/01 02:01:47;;;;;;;1.75;1.65;;;14.30;99.90;;;;;;5047320;28;20067;-81
2021/07/01 02:04:13;;;;;;;1.95;1.80;;;14.30;99.90;;;;;;5031232;28;20606;-83
2021/07/01 02:06:42;;;;;;;1.90;1.80;;;14.20;99.90;;;;;;5050670;28;20044;-82
2021/07/01 02:09:08;;;;;;;2.30;2.00;;;14.20;99.90;;;;;;5047855;28;20060;-82
2021/07/01 02:11:47;;;;;;;1.98;1.88;;;14.20;99.90;;;;;;5052787;28;20401;-82
2021/07/01 02:14:17;;;;;;;1.90;1.80;;;14.20;99.90;;;;;;5046980;28;20025;-81
2021/07/01 02:17:04;;;;;;;1.48;1.38;;;14.20;99.90;;;;;;5054763;28;20044;-80
2021/07/01 02:19:30;;;;;;;1.75;1.35;;;14.20;99.90;;;;;;5055444;28;20037;-80
2021/07/01 02:21:56;;;;;;;1.67;1.33;;;14.30;99.90;;;;;;5052568;28;20506;-81
2021/07/01 02:24:23;;;;;;;1.48;1.40;;;14.20;99.90;;;;;;5052062;28;20647;-82
2021/07/01 02:26:49;;;;;;;2.80;1.40;;;14.20;99.90;;;;;;5034895;28;20028;-82
2021/07/01 02:29:16;;;;;;;1.50;1.40;;;14.20;99.90;;;;;;5049912;28;20025;-82
2021/07/01 02:31:58;;;;;;;1.60;1.50;;;14.20;99.90;;;;;;5041866;28;20036;-81
2021/07/01 02:34:24;;;;;;;1.30;1.20;;;14.20;99.90;;;;;;5063518;28;20039;-81
2021/07/01 02:37:17;;;;;;;1.30;1.20;;;14.20;99.90;;;;;;5025212;28;20068;-82
2021/07/01 02:40:07;;;;;;;1.50;1.40;;;14.10;99.90;;;;;;5064724;28;20514;-82
2021/07/01 02:42:49;;;;;;;1.33;1.23;;;14.10;99.90;;;;;;5055972;28;20032;-80
2021/07/01 02:45:14;;;;;;;1.30;1.20;;;14.20;99.90;;;;;;5061920;28;20043;-81
2021/07/01 02:47:40;;;;;;;1.30;1.20;;;14.20;99.90;;;;;;5070409;28;20021;-81
2021/07/01 02:50:07;;;;;;;1.40;1.30;;;14.20;99.90;;;;;;5052736;28;20029;-81
2021/07/01 02:52:35;;;;;;;1.50;1.40;;;14.20;99.90;;;;;;5063342;28;20032;-81
2021/07/01 02:55:02;;;;;;;1.25;1.15;;;14.20;99.90;;;;;;5053778;28;20032;-81
2021/07/01 02:57:29;;;;;;;1.60;1.50;;;14.30;99.90;;;;;;5042182;28;20097;-81
2021/07/01 02:59:58;;;;;;;1.65;1.55;;;14.20;99.90;;;;;;5050398;28;20048;-81
2021/07/01 03:02:47;;;;;;;2.40;1.48;;;14.20;99.90;;;;;;5048973;28;20124;-82
2021/07/01 03:05:38;;;;;;;1.80;1.70;;;14.20;99.90;;;;;;5048062;28;20696;-82
2021/07/01 03:08:04;;;;;;;1.48;1.38;;;14.10;99.90;;;;;;5053584;28;20046;-81
2021/07/01 03:10:30;;;;;;;3.53;1.52;;;14.10;99.90;;;;;;5048918;28;20123;-80
2021/07/01 03:13:01;;;;;;;1.60;1.50;;;14.10;99.90;;;;;;5051369;28;20095;-82
2021/07/01 03:15:28;;;;;;;2.22;1.45;;;14.10;99.90;;;;;;5051207;28;20031;-81
2021/07/01 03:17:54;;;;;;;2.28;1.45;;;14.10;99.90;;;;;;5025886;28;20108;-81
2021/07/01 03:20:28;;;;;;;1.83;1.60;;;14.10;99.90;;;;;;5048445;28;20025;-81
2021/07/01 03:23:13;;;;;;;1.80;1.70;;;14.10;99.90;;;;;;5066236;28;20043;-81
2021/07/01 03:25:38;;;;;;;2.42;1.77;;;14.10;99.90;;;;;;5051283;28;20032;-83
2021/07/01 03:28:04;;;;;;;1.90;1.80;;;14.10;99.90;;;;;;5054133;28;20056;-83
2021/07/01 03:30:31;;;;;;;1.80;1.70;;;14.10;99.90;;;;;;5053569;28;20843;-82
2021/07/01 03:32:56;;;;;;;1.88;1.77;;;14.10;99.90;;;;;;5053522;28;20033;-81
2021/07/01 03:35:22;;;;;;;2.20;2.05;;;14.10;99.90;;;;;;5069616;28;20028;-81
2021/07/01 03:38:06;;;;;;;2.10;1.92;;;14.10;99.90;;;;;;5059253;28;20079;-82
2021/07/01 03:41:00;;;;;;;2.20;2.00;;;14.10;99.90;;;;;;5061136;28;20029;-81
2021/07/01 03:43:26;;;;;;;2.53;2.33;;;14.10;99.90;;;;;;5032848;28;20123;-81
2021/07/01 03:45:56;;;;;;;3.08;2.20;;;14.10;99.90;;;;;;5046214;28;20029;-80
2021/07/01 03:48:23;;;;;;;2.00;1.90;;;14.10;99.90;;;;;;5049240;28;20028;-82
2021/07/01 03:51:10;;;;;;;2.75;2.13;;;14.20;99.90;;;;;;5067715;28;20044;-82
2021/07/01 03:53:47;;;;;;;2.28;2.08;;;14.20;99.90;;;;;;5047820;28;20059;-80
2021/07/01 03:56:13;;;;;;;3.88;2.30;;;14.20;99.90;;;;;;5052969;28;20057;-83
2021/07/01 03:58:39;;;;;;;2.28;2.17;;;14.20;99.90;;;;;;5064380;28;20036;-81
2021/07/01 04:01:24;;;;;;;2.28;2.13;;;14.20;99.90;;;;;;5073008;28;20051;-82
2021/07/01 04:03:50;;;;;;;2.42;2.22;;;14.20;99.90;;;;;;5053454;28;20033;-82
2021/07/01 04:06:17;;;;;;;3.05;2.55;;;14.30;99.90;;;;;;5048610;28;20494;-82
2021/07/01 04:08:43;;;;;;;2.47;2.28;;;14.30;99.90;;;;;;5056060;28;20029;-83
2021/07/01 04:11:10;;;;;;;2.67;2.47;;;14.30;99.90;;;;;;5039784;28;20056;-81
2021/07/01 04:13:36;;;;;;;2.80;2.60;;;14.30;99.90;;;;;;5053829;28;20025;-82
2021/07/01 04:16:20;;;;;;;2.20;2.00;;;14.30;99.90;;;;;;5056509;28;20044;-81
2021/07/01 04:19:15;;;;;;;2.70;2.47;;;14.30;99.90;;;;;;5069649;28;20045;-79
2021/07/01 04:21:59;;;;;;;2.65;2.38;;;14.30;99.90;;;;;;5071580;28;20714;-82
2021/07/01 04:24:44;;;;;;;2.38;2.17;;;14.40;99.90;;;;;;5062351;28;20044;-80
2021/07/01 04:27:20;;;;;;;2.60;2.40;;;14.40;99.90;;;;;;5063895;28;20029;-83
2021/07/01 04:29:46;;;;;;;3.30;2.58;;;14.40;99.90;;;;;;5071282;28;20139;-82
2021/07/01 04:32:15;;;;;;;2.60;2.40;;;14.50;99.90;;;;;;5054657;28;20028;-80
2021/07/01 04:34:41;;;;;;;2.10;1.90;;;14.50;99.90;;;;;;5066352;28;20041;-81
2021/07/01 04:37:07;;;;;;;2.10;2.00;;;14.50;99.90;;;;;;5053969;28;20039;-82
2021/07/01 04:39:40;;;;;;;1.50;1.40;;;14.40;99.90;;;;;;5050721;28;20025;-82
2021/07/01 04:42:14;;;;;;;1.80;1.70;;;14.50;99.90;;;;;;5052670;28;20115;-82
2021/07/01 04:44:39;;;;;;;2.28;1.50;;;14.50;99.90;;;;;;5065765;28;20372;-81
2021/07/01 04:47:06;;;;;;;1.30;1.20;;;14.60;99.90;;;;;;5060742;28;20032;-82
2021/07/01 04:49:32;;;;;;;2.20;1.70;;;14.60;99.90;;;;;;5055078;28;20025;-82
2021/07/01 04:52:17;;;;;;;1.48;1.30;;;14.70;99.90;;;;;;5073818;28;20052;-80
2021/07/01 04:55:12;;;;;;;1.50;1.40;;;14.70;99.90;;;;;;5038650;28;20037;-80
2021/07/01 04:58:04;;;;;;;1.55;1.45;;;14.70;99.90;;;;;;5043715;28;20033;-80
2021/07/01 05:00:35;;;;;;;1.48;1.38;;;14.60;99.90;;;;;;5070255;28;20036;-80
2021/07/01 05:03:30;;;;;;;1.50;1.40;;;14.60;99.90;;;;;;5064692;28;20410;-80
2021/07/01 05:05:56;;;;;;;1.45;1.35;;;14.50;99.90;;;;;;5062209;28;20403;-81
2021/07/01 05:08:22;;;;;;;1.50;1.40;;;14.50;99.90;;;;;;5073640;28;20025;-83
2021/07/01 05:10:49;;;;;;;1.50;1.40;;;14.50;99.90;;;;;;5051973;28;20116;-82
2021/07/01 05:13:17;;;;;;;1.25;1.15;;;14.50;99.90;;;;;;5070562;28;20033;-82
2021/07/01 05:15:46;;;;;;;1.30;1.20;;;14.40;99.90;;;;;;5059488;28;20483;-82
2021/07/01 05:18:12;;;;;;;1.30;1.20;;;14.40;99.90;;;;;;5065824;28;20082;-82
2021/07/01 05:20:43;;;;;;;1.10;1.10;;;14.50;99.90;;;;;;5045655;28;20025;-83
2021/07/01 05:23:27;;;;;;;0.60;0.60;;;14.50;99.90;;;;;;5061789;28;20492;-81
2021/07/01 05:26:25;;;;;;;0.60;0.60;;;14.60;99.90;;;;;;5060938;28;20127;-82
2021/07/01 05:29:09;;;;;;;0.70;0.70;;;14.60;99.90;;;;;;5069788;28;20093;-82
2021/07/01 05:32:07;;;;;;;0.47;0.43;;;14.60;99.90;;;;;;5046424;28;20044;-82
2021/07/01 05:34:41;;;;;;;0.50;0.50;;;14.70;99.90;;;;;;5073452;28;20041;-82
2021/07/01 05:37:08;;;;;;;0.40;0.40;;;14.70;99.90;;;;;;5047966;28;20086;-81
2021/07/01 05:39:37;;;;;;;0.70;0.70;;;14.70;99.90;;;;;;5052127;28;20028;-82
2021/07/01 05:42:05;;;;;;;0.60;0.60;;;14.70;99.90;;;;;;5053104;28;20033;-82
2021/07/01 05:44:31;;;;;;;0.65;0.65;;;14.60;99.90;;;;;;5048597;28;20123;-82
2021/07/01 05:46:57;;;;;;;0.55;0.50;;;14.60;99.90;;;;;;5069851;28;20111;-83
2021/07/01 05:49:23;;;;;;;0.50;0.50;;;14.60;99.90;;;;;;5070253;28;20428;-83
2021/07/01 05:51:50;;;;;;;0.47;0.47;;;14.60;99.90;;;;;;5072393;28;20032;-83
2021/07/01 05:56:50;;;;;;;0.52;0.50;;;14.60;99.90;;;;;;5068362;28;20024;-82
2021/07/01 05:59:16;;;;;;;0.57;0.57;;;14.60;99.90;;;;;;5065478;28;20032;-81
2021/07/01 06:01:42;;;;;;;0.77;0.77;;;14.60;99.90;;;;;;5067661;28;20021;-82
2021/07/01 06:04:08;;;;;;;1.63;1.10;;;14.60;99.90;;;;;;5067949;28;20033;-82
2021/07/01 06:06:54;;;;;;;1.20;1.10;;;14.70;99.90;;;;;;5065809;28;20130;-83
2021/07/01 06:09:27;;;;;;;1.23;0.95;;;14.80;99.90;;;;;;5068708;28;20116;-81
2021/07/01 06:11:54;;;;;;;1.10;1.00;;;14.90;99.90;;;;;;5067069;28;20107;-82
2021/07/01 06:14:21;;;;;;;1.27;1.15;;;15.00;99.90;;;;;;5058171;28;20024;-82
2021/07/01 06:16:48;;;;;;;1.48;1.20;;;15.20;99.90;;;;;;5067598;28;20041;-82
2021/07/01 06:19:15;;;;;;;1.45;1.33;;;15.40;99.90;;;;;;5063141;28;20438;-82
2021/07/01 06:21:41;;;;;;;1.42;1.33;;;15.50;99.90;;;;;;5069943;28;20051;-83
2021/07/01 06:24:09;;;;;;;1.60;1.13;;;15.50;99.90;;;;;;5048337;28;20099;-83
2021/07/01 06:26:35;;;;;;;1.85;1.23;;;15.50;99.90;;;;;;5025998;23;20041;-86
2021/07/01 06:29:03;;;;;;;1.90;1.70;;;15.40;99.90;;;;;;4973048;28;20042;-86
2021/07/01 06:31:29;;;;;;;2.25;1.83;;;15.40;99.90;;;;;;4991062;28;20046;-85
2021/07/01 06:33:58;;;;;;;1.90;1.70;;;15.30;99.90;;;;;;4971472;28;20046;-85
2021/07/01 06:36:26;;;;;;;2.10;1.80;;;15.20;99.90;;;;;;4961159;28;20125;-87
2021/07/01 06:39:20;;;;;;;1.50;1.40;;;15.20;99.90;;;;;;4969856;28;20066;-85
2021/07/01 06:42:04;;;;;;;2.17;1.63;;;15.10;99.90;;;;;;4991906;28;20053;-87
2021/07/01 06:45:06;;;;;;;1.73;1.40;;;15.20;99.90;;;;;;4927219;28;20126;-85
2021/07/01 06:47:52;;;;;;;1.45;1.35;;;15.20;99.90;;;;;;4956294;28;20092;-87
2021/07/01 06:50:39;;;;;;;1.08;1.00;;;15.20;99.90;;;;;;4976189;28;20042;-86
2021/07/01 06:53:25;;;;;;;1.55;1.27;;;15.30;99.90;;;;;;4972597;28;20512;-86
2021/07/01 06:56:21;;;;;;;0.77;0.70;;;15.30;99.90;;;;;;4998434;28;20482;-85
2021/07/01 06:58:47;;;;;;;0.70;0.70;;;15.20;99.90;;;;;;5002476;28;20548;-84
2021/07/01 07:01:13;;;;;;;0.43;0.40;;;15.30;99.90;;;;;;5004413;28;20481;-83
2021/07/01 07:03:39;;;;;;;0.50;0.50;;;15.30;99.90;;;;;;4970676;28;20085;-83
2021/07/01 07:06:06;;;;;;;0.20;0.20;;;15.20;99.90;;;;;;4968970;28;20026;-83
2021/07/01 07:08:32;;;;;;;0.30;0.30;;;15.20;99.90;;;;;;4969832;28;20034;-84
2021/07/01 07:10:59;;;;;;;0.17;0.17;;;15.10;99.90;;;;;;4984305;28;20109;-84
2021/07/01 07:13:26;;;;;;;0.20;0.20;;;15.10;99.90;;;;;;4990185;28;20485;-83
2021/07/01 07:15:56;;;;;;;0.10;0.10;;;15.20;99.90;;;;;;4964198;28;20027;-84
2021/07/01 07:18:31;;;;;;;0.20;0.10;;;15.20;99.90;;;;;;5005050;28;20045;-83
2021/07/01 07:21:18;;;;;;;3.40;0.40;;;15.20;99.90;;;;;;5000095;28;20022;-83
2021/07/01 07:23:53;;;;;;;0.20;0.20;;;15.20;99.90;;;;;;4951265;28;20026;-84
2021/07/01 07:26:21;;;;;;;0.13;0.10;;;15.10;99.90;;;;;;5004660;28;20109;-84
2021/07/01 07:28:53;;;;;;;0.10;0.10;;;15.10;99.90;;;;;;5005074;28;20516;-83
2021/07/01 07:31:30;;;;;;;0.30;0.20;;;15.10;99.90;;;;;;4987438;28;20077;-84
2021/07/01 07:33:58;;;;;;;0.20;0.20;;;15.00;99.90;;;;;;4989909;28;20974;-83
2021/07/01 07:36:25;;;;;;;0.22;0.22;;;15.00;99.90;;;;;;4978533;28;20041;-83
2021/07/01 07:38:52;;;;;;;0.63;0.50;;;14.90;99.90;;;;;;4967855;28;20030;-84
2021/07/01 07:41:19;;;;;;;0.98;0.70;;;15.00;99.90;;;;;;4955575;28;20132;-84
2021/07/01 07:43:47;;;;;;;0.30;0.30;;;15.00;99.90;;;;;;4985102;28;20037;-84
2021/07/01 07:46:13;;;;;;;0.80;0.60;;;15.00;99.90;;;;;;4994026;28;20031;-84
2021/07/01 07:48:40;;;;;;;1.08;0.80;;;15.00;99.90;;;;;;4987588;28;20058;-83
2021/07/01 07:51:09;;;;;;;1.30;1.20;;;15.10;99.90;;;;;;4969201;28;20046;-84
2021/07/01 07:53:35;;;;;;;1.30;1.10;;;15.10;99.90;;;;;;5003011;28;20497;-84
2021/07/01 07:56:07;;;;;;;2.15;1.63;;;15.20;99.90;;;;;;4987698;28;20117;-81
2021/07/01 07:58:35;;;;;;;1.42;1.33;;;15.40;99.90;;;;;;4970621;28;20512;-84
2021/07/01 08:01:02;;;;;;;2.05;1.80;;;15.50;99.90;;;;;;4999715;28;20523;-84
2021/07/01 08:03:33;;;;;;;2.25;2.03;;;15.80;99.90;;;;;;4986077;28;20049;-84
2021/07/01 08:06:01;;;;;;;2.45;2.10;;;16.10;99.90;;;;;;4977629;28;20120;-83
2021/07/01 08:08:30;;;;;;;2.13;1.73;;;16.40;99.90;;;;;;4980040;28;20019;-83
2021/07/01 08:11:02;;;;;;;2.55;1.92;;;16.60;99.90;;;;;;4969998;28;20059;-83
2021/07/01 08:13:32;;;;;;;1.90;1.58;;;16.50;99.90;;;;;;4985541;28;20026;-83
2021/07/01 08:15:58;;;;;;;1.40;1.30;;;16.50;99.90;;;;;;4954385;28;20065;-83
2021/07/01 08:18:39;;;;;;;1.55;1.45;;;16.30;99.90;;;;;;4968683;28;20563;-83
2021/07/01 08:21:11;;;;;;;1.55;1.38;;;16.10;99.90;;;;;;5002902;28;20520;-83
2021/07/01 08:23:38;;;;;;;2.17;1.63;;;16.00;99.90;;;;;;4954046;28;20038;-83
2021/07/01 08:26:06;;;;;;;0.80;0.80;;;15.90;99.90;;;;;;4984196;28;20117;-83
2021/07/01 08:28:31;;;;;;;0.70;0.70;;;15.90;99.90;;;;;;4985014;28;20545;-84
2021/07/01 08:31:14;;;;;;;0.80;0.70;;;15.90;99.90;;;;;;4985402;28;20034;-84
2021/07/01 08:33:41;;;;;;;0.80;0.80;;;15.80;99.90;;;;;;4985912;28;20534;-83
2021/07/01 08:36:20;;;;;;;0.68;0.60;;;15.80;99.90;;;;;;4963973;28;20121;-84
2021/07/01 08:38:51;;;;;;;2.22;1.00;;;15.70;99.90;;;;;;4981063;28;20027;-83
2021/07/01 08:41:21;;;;;;;0.80;0.80;;;15.80;99.90;;;;;;4990277;28;20027;-84
2021/07/01 08:43:58;;;;;;;2.67;1.05;;;15.80;99.90;;;;;;4970928;28;20174;-84
2021/07/01 08:46:44;;;;;;;1.55;1.45;;;15.80;99.90;;;;;;4985400;28;20353;-84
2021/07/01 08:49:10;;;;;;;1.67;1.58;;;16.00;99.90;;;;;;4972875;28;20153;-84
2021/07/01 08:51:39;;;;;;;3.58;1.25;;;16.40;99.90;;;;;;4979249;28;20114;-84
2021/07/01 08:54:24;;;;;;;2.72;1.33;;;16.60;99.90;;;;;;4972971;28;20034;-84
2021/07/01 08:56:52;;;;;;;1.23;1.13;;;16.70;99.90;;;;;;5005054;28;20027;-84
2021/07/01 08:59:21;;;;;;;1.00;1.00;;;16.70;99.90;;;;;;4975799;28;20467;-83
2021/07/01 09:01:58;;;;;;;1.83;1.10;;;16.60;99.90;;;;;;4976342;28;20068;-83
2021/07/01 09:04:28;;;;;;;1.20;1.10;;;16.60;99.90;;;;;;4986783;28;20073;-83
2021/07/01 09:07:02;;;;;;;1.67;0.95;;;16.50;99.90;;;;;;4989369;28;20096;-84
2021/07/01 09:09:34;;;;;;;1.20;1.10;;;16.40;99.90;;;;;;4990276;28;20221;-82
2021/07/01 09:12:07;;;;;;;0.90;0.90;;;16.40;99.90;;;;;;4966855;28;20036;-84
2021/07/01 09:14:36;;;;;;;1.23;1.13;;;16.20;99.90;;;;;;4969813;28;20035;-83
2021/07/01 09:17:07;;;;;;;1.45;1.35;;;16.10;99.90;;;;;;5001933;28;20038;-83
2021/07/01 09:19:34;;;;;;;1.40;1.30;;;16.10;99.90;;;;;;5002251;28;20026;-84
2021/07/01 09:22:00;;;;;;;1.63;1.45;;;16.10;99.90;;;;;;4992354;28;20029;-84
2021/07/01 09:24:28;;;;;;;1.67;1.58;;;16.10;99.90;;;;;;4973469;28;20038;-83
2021/07/01 09:26:57;;;;;;;1.50;1.30;;;16.00;99.90;;;;;;4967712;28;20428;-83
2021/07/01 09:29:25;;;;;;;1.90;1.80;;;16.00;99.90;;;;;;4988363;28;20682;-83
2021/07/01 09:31:54;;;;;;;2.40;2.20;;;15.90;99.90;;;;;;4953537;28;20033;-83
2021/07/01 09:34:20;;;;;;;2.90;2.58;;;15.90;99.90;;;;;;4973680;28;20044;-83
2021/07/01 09:36:46;;;;;;;2.65;2.33;;;16.00;99.90;;;;;;4970085;28;20128;-84
2021/07/01 09:39:12;;;;;;;2.20;2.00;;;16.10;99.90;;;;;;4969355;28;20026;-84
2021/07/01 09:41:38;;;;;;;2.70;2.50;;;16.20;99.90;;;;;;4999840;28;20125;-83
2021/07/01 09:44:04;;;;;;;2.65;2.45;;;16.30;99.90;;;;;;4971954;28;20500;-83
2021/07/01 09:46:32;;;;;;;2.70;2.50;;;16.50;99.90;;;;;;4950412;28;20114;-83
2021/07/01 09:49:00;;;;;;;2.15;1.95;;;16.60;99.90;;;;;;4988659;28;20037;-84
2021/07/01 09:51:29;;;;;;;2.20;1.90;;;16.60;99.90;;;;;;5000004;28;20034;-83
2021/07/01 09:53:55;;;;;;;2.05;1.85;;;16.50;99.90;;;;;;4968372;28;20513;-83
2021/07/01 09:56:38;;;;;;;2.40;2.20;;;16.40;99.90;;;;;;4970601;28;20042;-82
2021/07/01 09:59:22;;;;;;;3.55;2.90;;;16.40;99.90;;;;;;4970405;28;20026;-83
2021/07/01 10:01:48;;;;;;;3.97;2.60;;;16.50;99.90;;;;;;5003149;28;20033;-83
2021/07/01 10:04:13;;;;;;;2.72;2.45;;;16.50;99.90;;;;;;4972281;28;20113;-83
2021/07/01 10:06:39;;;;;;;7.97;2.75;;;16.60;99.90;;;;;;4969578;28;20035;-83
2021/07/01 10:09:07;;;;;;;3.70;2.70;;;16.80;99.90;;;;;;4987283;28;20101;-83
2021/07/01 10:11:42;;;;;;;3.33;2.83;;;17.00;99.90;;;;;;4980957;28;20065;-83
2021/07/01 10:14:10;;;;;;;3.72;3.13;;;17.20;99.90;;;;;;4982586;28;20042;-83
2021/07/01 10:16:37;;;;;;;3.35;3.03;;;17.40;99.90;;;;;;5000794;28;20022;-83
2021/07/01 10:19:07;;;;;;;3.05;2.50;;;17.50;99.90;;;;;;4967495;28;20412;-83
2021/07/01 10:21:34;;;;;;;3.10;2.47;;;17.70;99.90;;;;;;4957936;28;20121;-84
2021/07/01 10:24:11;;;;;;;2.80;2.60;;;18.00;99.90;;;;;;4987473;28;20781;-84
2021/07/01 10:26:46;;;;;;;3.55;2.75;;;18.30;99.90;;;;;;4980854;28;20069;-83
2021/07/01 10:29:13;;;;;;;2.72;2.53;;;18.50;99.90;;;;;;4970530;28;20035;-84
2021/07/01 10:31:55;;;;;;;3.22;2.00;;;18.80;99.90;;;;;;4987995;28;20038;-83
2021/07/01 10:34:22;;;;;;;2.53;2.30;;;19.00;99.90;;;;;;5000920;28;20085;-84
2021/07/01 10:37:26;;;;;;;2.05;1.85;;;19.10;99.90;;;;;;4982954;28;20031;-85
2021/07/01 10:39:52;;;;;;;1.98;1.60;;;19.00;99.90;;;;;;4964454;28;20026;-84
2021/07/01 10:42:18;;;;;;;1.63;1.52;;;18.80;99.90;;;;;;4968855;28;20088;-85
2021/07/01 10:44:45;;;;;;;1.70;1.60;;;18.70;99.90;;;;;;4971827;28;20113;-83
2021/07/01 10:47:31;;;;;;;1.55;1.45;;;18.70;99.90;;;;;;4985099;28;20035;-84
2021/07/01 10:49:58;;;;;;;1.88;1.50;;;18.60;99.90;;;;;;4985109;28;20451;-84
2021/07/01 10:52:38;;;;;;;1.60;1.50;;;18.40;99.90;;;;;;4970462;28;20037;-85
2021/07/01 10:55:05;;;;;;;1.52;1.42;;;18.20;99.90;;;;;;4971393;28;20085;-84
2021/07/01 10:57:31;;;;;;;2.78;1.60;;;18.00;99.90;;;;;;4980754;28;20041;-84
2021/07/01 10:59:58;;;;;;;1.52;1.40;;;17.80;99.90;;;;;;4955591;28;20117;-83
2021/07/01 11:02:30;;;;;;;1.50;1.40;;;17.50;99.90;;;;;;5003944;28;20089;-84
2021/07/01 11:04:58;;;;;;;1.85;1.50;;;17.20;99.90;;;;;;4979206;28;20050;-84
2021/07/01 11:07:25;;;;;;;3.08;1.50;;;17.00;99.90;;;;;;4969607;28;21022;-84
2021/07/01 11:09:56;;;;;;;1.20;1.10;;;16.90;99.90;;;;;;4986381;28;20026;-83
2021/07/01 11:12:24;;;;;;;3.45;1.30;;;16.90;99.90;;;;;;4952700;28;20035;-84
2021/07/01 11:14:54;;;;;;;1.55;1.45;;;16.80;99.90;;;;;;4983913;28;20034;-84
2021/07/01 11:17:30;;;;;;;2.03;1.30;;;16.80;99.90;;;;;;4977691;28;20549;-84
2021/07/01 11:19:55;;;;;;;1.30;1.20;;;16.90;99.90;;;;;;4986043;28;20041;-84
2021/07/01 11:22:41;;;;;;;0.80;0.80;;;16.90;99.90;;;;;;4951775;28;20035;-83
2021/07/01 11:25:23;;;;;;;1.23;1.13;;;16.90;99.90;;;;;;4976871;28;20031;-84
2021/07/01 11:27:49;;;;;;;1.15;1.05;;;17.00;99.90;;;;;;4984953;28;20109;-84
2021/07/01 11:30:25;;;;;;;1.27;1.17;;;17.10;99.90;;;;;;4990999;28;20604;-84
2021/07/01 11:33:14;;;;;;;1.25;1.15;;;17.20;99.90;;;;;;4967520;28;20031;-85
2021/07/01 11:35:40;;;;;;;1.33;1.17;;;17.30;99.90;;;;;;4964333;28;20488;-84
2021/07/01 11:38:27;;;;;;;1.48;1.20;;;17.30;99.90;;;;;;4984882;28;20073;-84
2021/07/01 11:40:55;;;;;;;1.95;1.10;;;17.20;99.90;;;;;;4967643;28;20042;-85
2021/07/01 11:43:21;;;;;;;1.35;1.20;;;17.10;99.90;;;;;;4971025;28;20031;-85
2021/07/01 11:45:51;;;;;;;1.35;1.25;;;16.90;99.90;;;;;;4982688;28;20045;-85
2021/07/01 11:48:20;;;;;;;1.88;1.35;;;16.90;99.90;;;;;;4976643;28;20392;-85
2021/07/01 11:50:48;;;;;;;1.33;1.23;;;16.80;99.90;;;;;;5001486;28;20047;-85
2021/07/01 11:53:16;;;;;;;1.73;1.30;;;16.90;99.90;;;;;;4988065;28;20092;-84
2021/07/01 11:55:43;;;;;;;2.47;1.35;;;17.20;99.90;;;;;;4983463;28;20034;-84
2021/07/01 11:58:11;;;;;;;1.33;1.10;;;17.40;99.90;;;;;;4998331;28;20065;-85
2021/07/01 12:00:38;;;;;;;1.73;1.20;;;17.40;99.90;;;;;;4969411;28;20110;-85
2021/07/01 12:03:04;;;;;;;1.25;1.13;;;17.40;99.90;;;;;;4987544;28;20070;-85
2021/07/01 12:05:32;;;;;;;1.20;1.10;;;17.40;99.90;;;;;;4952993;28;20041;-84
2021/07/01 12:07:58;;;;;;;1.35;1.10;;;17.30;99.90;;;;;;4985635;28;20121;-85
2021/07/01 12:10:25;;;;;;;1.15;1.05;;;17.10;99.90;;;;;;4987297;28;20065;-86
2021/07/01 12:12:51;;;;;;;2.42;1.42;;;17.00;99.90;;;;;;5004170;28;20026;-85
2021/07/01 12:15:17;;;;;;;1.27;1.10;;;16.80;99.90;;;;;;4972825;28;20049;-85
2021/07/01 12:17:58;;;;;;;2.33;2.13;;;16.70;99.90;;;;;;4972897;28;20037;-85
2021/07/01 12:20:39;;;;;;;3.55;1.40;;;16.50;99.90;;;;;;4991516;28;20137;-85
2021/07/01 12:23:25;;;;;;;2.58;0.93;;;16.30;99.90;;;;;;4986673;28;20088;-87
2021/07/01 12:25:56;;;;;;;1.02;0.93;;;16.20;99.90;;;;;;5001810;28;20065;-85
2021/07/01 12:28:27;;;;;;;2.10;1.02;;;16.00;99.90;;;;;;4987251;28;20162;-85
2021/07/01 12:31:06;;;;;;;1.33;1.20;;;16.10;99.90;;;;;;4974749;28;20627;-86
2021/07/01 12:33:35;;;;;;;1.02;0.93;;;16.10;99.90;;;;;;4958458;28;20382;-85
2021/07/01 12:36:20;;;;;;;1.35;0.90;;;16.20;99.90;;;;;;4972312;28;20025;-86
2021/07/01 12:39:24;;;;;;;1.17;0.82;;;16.30;99.90;;;;;;4988758;28;20037;-85
2021/07/01 12:42:17;;;;;;;1.10;0.95;;;16.40;99.90;;;;;;4975326;28;20030;-85
2021/07/01 12:44:44;;;;;;;1.33;0.93;;;16.50;99.90;;;;;;4969661;28;20162;-85
2021/07/01 12:47:27;;;;;;;1.60;0.70;;;16.40;99.90;;;;;;4957854;28;20483;-85
2021/07/01 12:49:56;;;;;;;2.15;1.00;;;16.40;99.90;;;;;;4972757;28;20031;-84
2021/07/01 12:52:31;;;;;;;1.30;0.90;;;16.30;99.90;;;;;;4986942;28;20113;-85
2021/07/01 12:54:58;;;;;;;1.05;0.60;;;16.30;99.90;;;;;;4991366;28;20038;-85
2021/07/01 12:57:24;;;;;;;1.98;0.70;;;16.20;99.90;;;;;;4972657;28;20034;-85
2021/07/01 12:59:52;;;;;;;0.75;0.75;;;16.10;99.90;;;;;;4973711;28;20038;-85
2021/07/01 13:02:38;;;;;;;0.60;0.57;;;16.00;99.90;;;;;;4973894;28;20038;-85
2021/07/01 13:05:07;;;;;;;;;;;15.90;99.90;;;;;;4972961;28;20042;-85
2021/07/01 13:07:34;;;;;;;0.45;0.45;;;15.90;99.90;;;;;;4986608;28;19959;-85
2021/07/01 13:10:03;;;;;;;0.95;0.60;;;15.80;99.90;;;;;;4963233;28;20096;-85
2021/07/01 13:12:31;;;;;;;3.33;0.63;;;15.80;99.90;;;;;;4989510;28;20038;-84